Center Creek, Utah
Current Conditions -  °F | °C
As of 6:55 AM on Monday 24 Nov 2014 (Local Time) from K36U Reporting Station
Light Snow Light Snow  
Wind Chill: 30°   Ceiling: 3100
Heat Index: 30°   Visibility: 10mi
Dew Point: 23°   Wind: 3mph
Humidity: 75%   Direction: 110°ESE
Pressure: 30.16"   Gusts: NA
Location:  40.2386°N, 111.149°W
Report Text: K36U 241355Z AUTO 11003KT 10SM -SN SCT024 BKN031 OVC049 M01/M05 A3016 RMK AO2
Loading
Personal Weather Stations






























Interactive Weather Map New forecast layout! Learn more

10-Day Weather Forecast

Advertisements
Track Severe Weather on mobile